PWSweather.com
Personal Weather Stations
Station Observations
GRD01
Warsaw, LesznoPL 05-084

WarsawLesznoPL 05-084

Lat: 52.257404, Lon: 20.564847

Elevation: 298

Station Type: WH3080

http://pogoda.kampinos.waw.pl

High Low Average
Temperature 47.7°F8.7°C 41.7°F5.4°C 45.2°F7.3°C
Dew Point 44.0°F6.7°C 38.6°F3.7°C 41.6°F5.3°C
Winds 7.6 mph 12.2 kmh 0.7 mph 1.1 kmh 2.0 mph E3.2 kmh E
Wind Gusts 10.7 mph17.2 kmh 1.6 mph2.6 kmh 5.0 mph8.0 kmh
Humidity 92% 80% 87%
Pressure 30.55 in1034.5 mb 30.51 in1033.2 mb -
Precipitation 0.00 in0.0 mm - -
Hour Temp Dew Point Humidity Winds Wind Gusts Pressure Precip Precip Rate Daily Precip Total
12:00 AM 47.7°F8.7°C 41.8°F5.4°C 80% 4.5 mph ESE7.2 kmh ESE 7.6 mph12.2 kmh 30.55 in1034.5 mb 0.00 in0.0 mm 0.00 in0.0 mm 0.00 in0.0 mm
12:11 AM 47.7°F8.7°C 41.8°F5.4°C 80% 3.8 mph SE6.1 kmh SE 4.5 mph7.2 kmh 30.10 in1019.3 mb 0.00 in0.0 mm 0.00 in0.0 mm 0.00 in0.0 mm
12:15 AM 47.3°F8.5°C 41.4°F5.2°C 80% 1.6 mph E2.6 kmh E 5.4 mph8.7 kmh 30.54 in1034.2 mb 0.00 in0.0 mm 0.00 in0.0 mm 0.00 in0.0 mm
12:30 AM 46.9°F8.3°C 41.4°F5.2°C 81% 1.6 mph E2.6 kmh E 8.3 mph13.4 kmh 30.55 in1034.5 mb 0.00 in0.0 mm 0.00 in0.0 mm 0.00 in0.0 mm
12:41 AM 46.9°F8.3°C 41.4°F5.2°C 81% 3.8 mph S6.1 kmh S 4.5 mph7.2 kmh 30.10 in1019.3 mb 0.00 in0.0 mm 0.00 in0.0 mm 0.00 in0.0 mm
12:45 AM 46.8°F8.2°C 41.2°F5.1°C 81% 2.2 mph E3.5 kmh E 6.0 mph9.7 kmh 30.54 in1034.2 mb 0.00 in0.0 mm 0.00 in0.0 mm 0.00 in0.0 mm
01:00 AM 46.6°F8.1°C 41.1°F5.1°C 81% 3.8 mph SE6.1 kmh SE 5.4 mph8.7 kmh 30.54 in1034.2 mb 0.00 in0.0 mm 0.00 in0.0 mm 0.00 in0.0 mm
01:11 AM 46.6°F8.1°C 41.1°F5.1°C 81% 3.8 mph SE6.1 kmh SE 5.4 mph8.7 kmh 30.10 in1019.3 mb 0.00 in0.0 mm 0.00 in0.0 mm 0.00 in0.0 mm
01:15 AM 46.4°F8.0°C 40.9°F4.9°C 81% 3.1 mph ESE5.0 kmh ESE 6.0 mph9.7 kmh 30.54 in1034.2 mb 0.00 in0.0 mm 0.00 in0.0 mm 0.00 in0.0 mm
01:30 AM 46.2°F7.9°C 40.7°F4.8°C 81% 2.2 mph E3.5 kmh E 5.4 mph8.7 kmh 30.53 in1033.9 mb 0.00 in0.0 mm 0.00 in0.0 mm 0.00 in0.0 mm
01:41 AM 46.0°F7.8°C 40.5°F4.7°C 81% 2.2 mph NE3.5 kmh NE 3.8 mph6.1 kmh 30.09 in1019.0 mb 0.00 in0.0 mm 0.00 in0.0 mm 0.00 in0.0 mm
01:45 AM 45.9°F7.7°C 40.7°F4.8°C 82% 2.2 mph E3.5 kmh E 4.5 mph7.2 kmh 30.53 in1033.9 mb 0.00 in0.0 mm 0.00 in0.0 mm 0.00 in0.0 mm
02:00 AM 45.5°F7.5°C 40.3°F4.6°C 82% 1.6 mph E2.6 kmh E 6.0 mph9.7 kmh 30.54 in1034.2 mb 0.00 in0.0 mm 0.00 in0.0 mm 0.00 in0.0 mm
02:11 AM 45.5°F7.5°C 40.3°F4.6°C 82% 3.1 mph E5.0 kmh E 3.8 mph6.1 kmh 30.08 in1018.6 mb 0.00 in0.0 mm 0.00 in0.0 mm 0.00 in0.0 mm
02:15 AM 45.3°F7.4°C 42.0°F5.6°C 88% 3.8 mph E6.1 kmh E 5.4 mph8.7 kmh 30.53 in1033.9 mb 0.00 in0.0 mm 0.00 in0.0 mm 0.00 in0.0 mm
02:30 AM 45.1°F7.3°C 41.8°F5.4°C 88% 3.1 mph ENE5.0 kmh ENE 3.8 mph6.1 kmh 30.53 in1033.9 mb 0.00 in0.0 mm 0.00 in0.0 mm 0.00 in0.0 mm
02:41 AM 45.1°F7.3°C 41.8°F5.4°C 88% 1.6 mph E2.6 kmh E 3.1 mph5.0 kmh 30.08 in1018.6 mb 0.00 in0.0 mm 0.00 in0.0 mm 0.00 in0.0 mm
02:45 AM 45.0°F7.2°C 41.9°F5.5°C 89% 2.2 mph ENE3.5 kmh ENE 3.1 mph5.0 kmh 30.52 in1033.5 mb 0.00 in0.0 mm 0.00 in0.0 mm 0.00 in0.0 mm
03:00 AM 44.8°F7.1°C 41.7°F5.4°C 89% 0.7 mph NE1.1 kmh NE 3.8 mph6.1 kmh 30.52 in1033.5 mb 0.00 in0.0 mm 0.00 in0.0 mm 0.00 in0.0 mm
03:11 AM 44.6°F7.0°C 41.6°F5.3°C 89% 0.7 mph NE1.1 kmh NE 1.6 mph2.6 kmh 30.08 in1018.6 mb 0.00 in0.0 mm 0.00 in0.0 mm 0.00 in0.0 mm
03:15 AM 44.1°F6.7°C 41.0°F5.0°C 89% 0.7 mph NE1.1 kmh NE 2.2 mph3.5 kmh 30.52 in1033.5 mb 0.00 in0.0 mm 0.00 in0.0 mm 0.00 in0.0 mm
03:30 AM 43.2°F6.2°C 39.8°F4.3°C 88% 0.7 mph NE1.1 kmh NE 3.1 mph5.0 kmh 30.51 in1033.2 mb 0.00 in0.0 mm 0.00 in0.0 mm 0.00 in0.0 mm
03:41 AM 43.0°F6.1°C 39.7°F4.3°C 88% 1.6 mph NE2.6 kmh NE 1.6 mph2.6 kmh 30.08 in1018.6 mb 0.00 in0.0 mm 0.00 in0.0 mm 0.00 in0.0 mm
03:45 AM 42.3°F5.7°C 39.0°F3.9°C 88% 0.7 mph NE1.1 kmh NE 2.2 mph3.5 kmh 30.51 in1033.2 mb 0.00 in0.0 mm 0.00 in0.0 mm 0.00 in0.0 mm
04:00 AM 41.9°F5.5°C 38.6°F3.7°C 88% 0.7 mph NE1.1 kmh NE 1.6 mph2.6 kmh 30.51 in1033.2 mb 0.00 in0.0 mm 0.00 in0.0 mm 0.00 in0.0 mm
04:11 AM 41.7°F5.4°C 38.7°F3.7°C 89% 0.7 mph NE1.1 kmh NE 1.6 mph2.6 kmh 30.07 in1018.3 mb 0.00 in0.0 mm 0.00 in0.0 mm 0.00 in0.0 mm
04:15 AM 41.7°F5.4°C 38.7°F3.7°C 89% 1.6 mph NE2.6 kmh NE 2.2 mph3.5 kmh 30.52 in1033.5 mb 0.00 in0.0 mm 0.00 in0.0 mm 0.00 in0.0 mm
04:30 AM 42.4°F5.8°C 39.7°F4.3°C 90% 3.8 mph E6.1 kmh E 6.0 mph9.7 kmh 30.51 in1033.2 mb 0.00 in0.0 mm 0.00 in0.0 mm 0.00 in0.0 mm
04:41 AM 42.6°F5.9°C 40.2°F4.6°C 91% 3.8 mph NE6.1 kmh NE 5.4 mph8.7 kmh 30.07 in1018.3 mb 0.00 in0.0 mm 0.00 in0.0 mm 0.00 in0.0 mm
04:45 AM 43.3°F6.3°C 40.9°F4.9°C 91% 2.2 mph ENE3.5 kmh ENE 5.4 mph8.7 kmh 30.51 in1033.2 mb 0.00 in0.0 mm 0.00 in0.0 mm 0.00 in0.0 mm
05:00 AM 43.9°F6.6°C 41.7°F5.4°C 92% 0.7 mph NE1.1 kmh NE 3.8 mph6.1 kmh 30.51 in1033.2 mb 0.00 in0.0 mm 0.00 in0.0 mm 0.00 in0.0 mm
05:11 AM 43.9°F6.6°C 41.7°F5.4°C 92% 1.6 mph NE2.6 kmh NE 2.2 mph3.5 kmh 30.08 in1018.6 mb 0.00 in0.0 mm 0.00 in0.0 mm 0.00 in0.0 mm
05:15 AM 44.1°F6.7°C 41.9°F5.5°C 92% 2.2 mph NE3.5 kmh NE 4.5 mph7.2 kmh 30.52 in1033.5 mb 0.00 in0.0 mm 0.00 in0.0 mm 0.00 in0.0 mm
05:30 AM 44.2°F6.8°C 42.1°F5.6°C 92% 1.6 mph ENE2.6 kmh ENE 3.1 mph5.0 kmh 30.52 in1033.5 mb 0.00 in0.0 mm 0.00 in0.0 mm 0.00 in0.0 mm
05:41 AM 44.2°F6.8°C 42.1°F5.6°C 92% 2.2 mph NE3.5 kmh NE 3.1 mph5.0 kmh 30.07 in1018.3 mb 0.00 in0.0 mm 0.00 in0.0 mm 0.00 in0.0 mm
05:45 AM 44.6°F7.0°C 42.4°F5.8°C 92% 2.2 mph E3.5 kmh E 5.4 mph8.7 kmh 30.51 in1033.2 mb 0.00 in0.0 mm 0.00 in0.0 mm 0.00 in0.0 mm
06:00 AM 45.0°F7.2°C 42.8°F6.0°C 92% 1.6 mph NE2.6 kmh NE 3.8 mph6.1 kmh 30.52 in1033.5 mb 0.00 in0.0 mm 0.00 in0.0 mm 0.00 in0.0 mm
06:11 AM 45.0°F7.2°C 42.8°F6.0°C 92% 2.2 mph NE3.5 kmh NE 4.5 mph7.2 kmh 30.07 in1018.3 mb 0.00 in0.0 mm 0.00 in0.0 mm 0.00 in0.0 mm
06:15 AM 45.1°F7.3°C 43.0°F6.1°C 92% 2.2 mph E3.5 kmh E 6.0 mph9.7 kmh 30.51 in1033.2 mb 0.00 in0.0 mm 0.00 in0.0 mm 0.00 in0.0 mm
06:30 AM 45.3°F7.4°C 43.1°F6.2°C 92% 4.5 mph E7.2 kmh E 9.2 mph14.8 kmh 30.52 in1033.5 mb 0.00 in0.0 mm 0.00 in0.0 mm 0.00 in0.0 mm
06:41 AM 45.3°F7.4°C 43.1°F6.2°C 92% 2.2 mph E3.5 kmh E 3.1 mph5.0 kmh 30.07 in1018.3 mb 0.00 in0.0 mm 0.00 in0.0 mm 0.00 in0.0 mm
06:45 AM 45.5°F7.5°C 42.2°F5.7°C 88% 4.5 mph E7.2 kmh E 6.9 mph11.1 kmh 30.51 in1033.2 mb 0.00 in0.0 mm 0.00 in0.0 mm 0.00 in0.0 mm
07:00 AM 45.5°F7.5°C 42.2°F5.7°C 88% 0.7 mph E1.1 kmh E 3.8 mph6.1 kmh 30.52 in1033.5 mb 0.00 in0.0 mm 0.00 in0.0 mm 0.00 in0.0 mm
07:11 AM 45.5°F7.5°C 42.2°F5.7°C 88% 0.7 mph E1.1 kmh E 1.6 mph2.6 kmh 30.07 in1018.3 mb 0.00 in0.0 mm 0.00 in0.0 mm 0.00 in0.0 mm
07:15 AM 46.2°F7.9°C 42.9°F6.1°C 88% 2.2 mph SE3.5 kmh SE 8.3 mph13.4 kmh 30.51 in1033.2 mb 0.00 in0.0 mm 0.00 in0.0 mm 0.00 in0.0 mm
07:30 AM 46.8°F8.2°C 43.7°F6.5°C 89% 1.6 mph SE2.6 kmh SE 6.9 mph11.1 kmh 30.51 in1033.2 mb 0.00 in0.0 mm 0.00 in0.0 mm 0.00 in0.0 mm
07:41 AM 46.8°F8.2°C 43.7°F6.5°C 89% 5.4 mph SE8.7 kmh SE 7.6 mph12.2 kmh 30.07 in1018.3 mb 0.00 in0.0 mm 0.00 in0.0 mm 0.00 in0.0 mm
07:45 AM 46.9°F8.3°C 43.9°F6.6°C 89% 4.5 mph SE7.2 kmh SE 8.3 mph13.4 kmh 30.52 in1033.5 mb 0.00 in0.0 mm 0.00 in0.0 mm 0.00 in0.0 mm
08:00 AM 47.1°F8.4°C 44.0°F6.7°C 89% 3.8 mph ESE6.1 kmh ESE 9.8 mph15.8 kmh 30.51 in1033.2 mb 0.00 in0.0 mm 0.00 in0.0 mm 0.00 in0.0 mm
08:11 AM 47.1°F8.4°C 44.0°F6.7°C 89% 4.5 mph SE7.2 kmh SE 6.9 mph11.1 kmh 30.07 in1018.3 mb 0.00 in0.0 mm 0.00 in0.0 mm 0.00 in0.0 mm
08:15 AM 47.3°F8.5°C 43.9°F6.6°C 88% 7.6 mph E12.2 kmh E 10.7 mph17.2 kmh 30.51 in1033.2 mb 0.00 in0.0 mm 0.00 in0.0 mm 0.00 in0.0 mm
08:38 AM 45.3°F7.4°C 43.1°F6.2°C 92% 2.2 mph E3.5 kmh E 3.1 mph5.0 kmh 30.51 in1033.2 mb 0.00 in0.0 mm 0.00 in0.0 mm 0.00 in0.0 mm
08:41 AM 47.5°F8.6°C 44.1°F6.7°C 88% 2.2 mph S3.5 kmh S 3.8 mph6.1 kmh 30.08 in1018.6 mb 0.00 in0.0 mm 0.00 in0.0 mm 0.00 in0.0 mm
09:08 AM 45.5°F7.5°C 42.2°F5.7°C 88% 0.7 mph E1.1 kmh E 1.6 mph2.6 kmh 30.51 in1033.2 mb 0.00 in0.0 mm 0.00 in0.0 mm 0.00 in0.0 mm
09:11 AM 47.8°F8.8°C 44.2°F6.8°C 87% 3.8 mph S6.1 kmh S 4.5 mph7.2 kmh 30.08 in1018.6 mb 0.00 in0.0 mm 0.00 in0.0 mm 0.00 in0.0 mm
09:38 AM 46.8°F8.2°C 43.7°F6.5°C 89% 5.4 mph SE8.7 kmh SE 7.6 mph12.2 kmh 30.51 in1033.2 mb 0.00 in0.0 mm 0.00 in0.0 mm 0.00 in0.0 mm
09:41 AM 48.2°F9.0°C 44.2°F6.8°C 86% 4.5 mph NE7.2 kmh NE 5.4 mph8.7 kmh 30.08 in1018.6 mb 0.00 in0.0 mm 0.00 in0.0 mm 0.00 in0.0 mm
10:08 AM 47.1°F8.4°C 44.0°F6.7°C 89% 4.5 mph SE7.2 kmh SE 6.9 mph11.1 kmh 30.51 in1033.2 mb 0.00 in0.0 mm 0.00 in0.0 mm 0.00 in0.0 mm
10:11 AM 48.6°F9.2°C 43.9°F6.6°C 84% 2.2 mph E3.5 kmh E 3.8 mph6.1 kmh 30.09 in1019.0 mb 0.00 in0.0 mm 0.00 in0.0 mm 0.00 in0.0 mm
10:38 AM 47.5°F8.6°C 44.1°F6.7°C 88% 2.2 mph S3.5 kmh S 3.8 mph6.1 kmh 30.52 in1033.5 mb 0.00 in0.0 mm 0.00 in0.0 mm 0.00 in0.0 mm
10:41 AM 48.6°F9.2°C 43.3°F6.3°C 82% 4.5 mph E7.2 kmh E 6.0 mph9.7 kmh 30.07 in1018.3 mb 0.00 in0.0 mm 0.00 in0.0 mm 0.00 in0.0 mm
11:08 AM 47.8°F8.8°C 44.2°F6.8°C 87% 3.8 mph S6.1 kmh S 4.5 mph7.2 kmh 30.52 in1033.5 mb 0.00 in0.0 mm 0.00 in0.0 mm 0.00 in0.0 mm
11:11 AM 48.9°F9.4°C 43.7°F6.5°C 82% 5.4 mph E8.7 kmh E 6.9 mph11.1 kmh 30.07 in1018.3 mb 0.00 in0.0 mm 0.00 in0.0 mm 0.00 in0.0 mm
11:38 AM 48.2°F9.0°C 44.2°F6.8°C 86% 4.5 mph NE7.2 kmh NE 5.4 mph8.7 kmh 30.52 in1033.5 mb 0.00 in0.0 mm 0.00 in0.0 mm 0.00 in0.0 mm
11:41 AM 49.1°F9.5°C 43.5°F6.4°C 81% 6.9 mph E11.1 kmh E 8.3 mph13.4 kmh 30.06 in1017.9 mb 0.00 in0.0 mm 0.00 in0.0 mm 0.00 in0.0 mm
12:08 PM 48.6°F9.2°C 43.9°F6.6°C 84% 2.2 mph E3.5 kmh E 3.8 mph6.1 kmh 30.53 in1033.9 mb 0.00 in0.0 mm 0.00 in0.0 mm 0.00 in0.0 mm
12:11 PM 49.3°F9.6°C 43.7°F6.5°C 81% 3.8 mph E6.1 kmh E 6.0 mph9.7 kmh 30.05 in1017.6 mb 0.00 in0.0 mm 0.00 in0.0 mm 0.00 in0.0 mm
12:38 PM 48.6°F9.2°C 43.3°F6.3°C 82% 4.5 mph E7.2 kmh E 6.0 mph9.7 kmh 30.51 in1033.2 mb 0.00 in0.0 mm 0.00 in0.0 mm 0.00 in0.0 mm
12:41 PM 50.2°F10.1°C 44.6°F7.0°C 81% 7.6 mph E12.2 kmh E 9.8 mph15.8 kmh 30.06 in1017.9 mb 0.00 in0.0 mm 0.00 in0.0 mm 0.00 in0.0 mm
01:08 PM 48.9°F9.4°C 43.7°F6.5°C 82% 5.4 mph E8.7 kmh E 6.9 mph11.1 kmh 30.51 in1033.2 mb 0.00 in0.0 mm 0.00 in0.0 mm 0.00 in0.0 mm
01:11 PM 51.1°F10.6°C 45.5°F7.5°C 81% 7.6 mph SE12.2 kmh SE 9.2 mph14.8 kmh 30.06 in1017.9 mb 0.00 in0.0 mm 0.00 in0.0 mm 0.00 in0.0 mm
01:38 PM 49.1°F9.5°C 43.5°F6.4°C 81% 6.9 mph E11.1 kmh E 8.3 mph13.4 kmh 30.50 in1032.8 mb 0.00 in0.0 mm 0.00 in0.0 mm 0.00 in0.0 mm
01:41 PM 52.0°F11.1°C 46.0°F7.8°C 80% 1.6 mph S2.6 kmh S 4.5 mph7.2 kmh 30.05 in1017.6 mb 0.00 in0.0 mm 0.00 in0.0 mm 0.00 in0.0 mm
02:08 PM 49.3°F9.6°C 43.7°F6.5°C 81% 3.8 mph E6.1 kmh E 6.0 mph9.7 kmh 30.50 in1032.8 mb 0.00 in0.0 mm 0.00 in0.0 mm 0.00 in0.0 mm
02:11 PM 54.0°F12.2°C 47.6°F8.7°C 79% 1.6 mph S2.6 kmh S 2.2 mph3.5 kmh 30.04 in1017.3 mb 0.00 in0.0 mm 0.00 in0.0 mm 0.00 in0.0 mm
02:38 PM 50.2°F10.1°C 44.6°F7.0°C 81% 7.6 mph E12.2 kmh E 9.8 mph15.8 kmh 30.50 in1032.8 mb 0.00 in0.0 mm 0.00 in0.0 mm 0.00 in0.0 mm
02:41 PM 56.5°F13.6°C 47.2°F8.4°C 71% 3.8 mph SE6.1 kmh SE 4.5 mph7.2 kmh 30.03 in1016.9 mb 0.00 in0.0 mm 0.00 in0.0 mm 0.00 in0.0 mm
03:08 PM 51.1°F10.6°C 45.5°F7.5°C 81% 7.6 mph SE12.2 kmh SE 9.2 mph14.8 kmh 30.50 in1032.8 mb 0.00 in0.0 mm 0.00 in0.0 mm 0.00 in0.0 mm
03:11 PM 56.5°F13.6°C 47.2°F8.4°C 71% 0.7 mph S1.1 kmh S 1.6 mph2.6 kmh 30.02 in1016.6 mb 0.00 in0.0 mm 0.00 in0.0 mm 0.00 in0.0 mm
03:38 PM 52.0°F11.1°C 46.0°F7.8°C 80% 1.6 mph S2.6 kmh S 4.5 mph7.2 kmh 30.49 in1032.5 mb 0.00 in0.0 mm 0.00 in0.0 mm 0.00 in0.0 mm
03:41 PM 56.5°F13.6°C 47.2°F8.4°C 71% 1.6 mph S2.6 kmh S 2.2 mph3.5 kmh 30.01 in1016.3 mb 0.00 in0.0 mm 0.00 in0.0 mm 0.00 in0.0 mm
04:08 PM 54.0°F12.2°C 47.6°F8.7°C 79% 1.6 mph S2.6 kmh S 2.2 mph3.5 kmh 30.48 in1032.2 mb 0.00 in0.0 mm 0.00 in0.0 mm 0.00 in0.0 mm
04:11 PM 55.9°F13.3°C 46.7°F8.2°C 71% 1.6 mph S2.6 kmh S 2.2 mph3.5 kmh 30.00 in1015.9 mb 0.00 in0.0 mm 0.00 in0.0 mm 0.00 in0.0 mm
04:38 PM 56.5°F13.6°C 47.2°F8.4°C 71% 3.8 mph SE6.1 kmh SE 4.5 mph7.2 kmh 30.47 in1031.8 mb 0.00 in0.0 mm 0.00 in0.0 mm 0.00 in0.0 mm
04:41 PM 54.9°F12.7°C 46.0°F7.8°C 72% 0.7 mph SW1.1 kmh SW 1.6 mph2.6 kmh 29.98 in1015.2 mb 0.00 in0.0 mm 0.00 in0.0 mm 0.00 in0.0 mm
05:08 PM 56.5°F13.6°C 47.2°F8.4°C 71% 0.7 mph S1.1 kmh S 1.6 mph2.6 kmh 30.46 in1031.5 mb 0.00 in0.0 mm 0.00 in0.0 mm 0.00 in0.0 mm
05:11 PM 53.4°F11.9°C 46.4°F8.0°C 77% Calm Calm 0.7 mph1.1 kmh 29.98 in1015.2 mb 0.00 in0.0 mm 0.00 in0.0 mm 0.00 in0.0 mm
05:38 PM 56.5°F13.6°C 47.2°F8.4°C 71% 1.6 mph S2.6 kmh S 2.2 mph3.5 kmh 30.45 in1031.2 mb 0.00 in0.0 mm 0.00 in0.0 mm 0.00 in0.0 mm
05:41 PM 51.4°F10.8°C 45.5°F7.5°C 80% 0.7 mph SE1.1 kmh SE 1.6 mph2.6 kmh 29.98 in1015.2 mb 0.00 in0.0 mm 0.00 in0.0 mm 0.00 in0.0 mm
06:08 PM 55.9°F13.3°C 46.7°F8.2°C 71% 1.6 mph S2.6 kmh S 2.2 mph3.5 kmh 30.44 in1030.8 mb 0.00 in0.0 mm 0.00 in0.0 mm 0.00 in0.0 mm
06:11 PM 49.5°F9.7°C 43.9°F6.6°C 81% Calm Calm -- 29.99 in1015.6 mb 0.00 in0.0 mm 0.00 in0.0 mm 0.00 in0.0 mm
06:38 PM 54.9°F12.7°C 46.0°F7.8°C 72% 0.7 mph SW1.1 kmh SW 1.6 mph2.6 kmh 30.43 in1030.5 mb 0.00 in0.0 mm 0.00 in0.0 mm 0.00 in0.0 mm
06:41 PM 48.0°F8.9°C 42.8°F6.0°C 82% Calm Calm -- 29.98 in1015.2 mb 0.00 in0.0 mm 0.00 in0.0 mm 0.00 in0.0 mm
07:08 PM 53.4°F11.9°C 46.4°F8.0°C 77% Calm Calm 0.7 mph1.1 kmh 30.43 in1030.5 mb 0.00 in0.0 mm 0.00 in0.0 mm 0.00 in0.0 mm
07:11 PM 46.8°F8.2°C 41.9°F5.5°C 83% Calm Calm 0.7 mph1.1 kmh 29.98 in1015.2 mb 0.00 in0.0 mm 0.00 in0.0 mm 0.00 in0.0 mm
07:38 PM 51.4°F10.8°C 45.5°F7.5°C 80% 0.7 mph SE1.1 kmh SE 1.6 mph2.6 kmh 30.43 in1030.5 mb 0.00 in0.0 mm 0.00 in0.0 mm 0.00 in0.0 mm
07:41 PM 45.3°F7.4°C 42.6°F5.9°C 90% Calm Calm -- 29.98 in1015.2 mb 0.00 in0.0 mm 0.00 in0.0 mm 0.00 in0.0 mm
08:08 PM 49.5°F9.7°C 43.9°F6.6°C 81% Calm Calm -- 30.43 in1030.5 mb 0.00 in0.0 mm 0.00 in0.0 mm 0.00 in0.0 mm
08:11 PM 44.4°F6.9°C 42.0°F5.6°C 91% Calm Calm -- 29.98 in1015.2 mb 0.00 in0.0 mm 0.00 in0.0 mm 0.00 in0.0 mm
08:38 PM 48.0°F8.9°C 42.8°F6.0°C 82% Calm Calm -- 30.43 in1030.5 mb 0.00 in0.0 mm 0.00 in0.0 mm 0.00 in0.0 mm
08:41 PM 44.2°F6.8°C 41.8°F5.4°C 91% 1.6 mph SE2.6 kmh SE 2.2 mph3.5 kmh 29.97 in1014.9 mb 0.00 in0.0 mm 0.00 in0.0 mm 0.00 in0.0 mm
09:08 PM 46.8°F8.2°C 41.9°F5.5°C 83% Calm Calm 0.7 mph1.1 kmh 30.43 in1030.5 mb 0.00 in0.0 mm 0.00 in0.0 mm 0.00 in0.0 mm
09:11 PM 43.7°F6.5°C 41.5°F5.3°C 92% 1.6 mph SE2.6 kmh SE 1.6 mph2.6 kmh 29.98 in1015.2 mb 0.00 in0.0 mm 0.00 in0.0 mm 0.00 in0.0 mm
09:38 PM 45.3°F7.4°C 42.6°F5.9°C 90% Calm Calm -- 30.42 in1030.1 mb 0.00 in0.0 mm 0.00 in0.0 mm 0.00 in0.0 mm
09:41 PM 43.7°F6.5°C 41.5°F5.3°C 92% Calm Calm 0.7 mph1.1 kmh 29.97 in1014.9 mb 0.00 in0.0 mm 0.00 in0.0 mm 0.00 in0.0 mm
10:08 PM 44.4°F6.9°C 42.0°F5.6°C 91% Calm Calm -- 30.42 in1030.1 mb 0.00 in0.0 mm 0.00 in0.0 mm 0.00 in0.0 mm
10:11 PM 43.7°F6.5°C 41.8°F5.4°C 93% 2.2 mph SE3.5 kmh SE 3.1 mph5.0 kmh 29.96 in1014.6 mb 0.00 in0.0 mm 0.00 in0.0 mm 0.00 in0.0 mm
10:38 PM 44.2°F6.8°C 41.8°F5.4°C 91% 1.6 mph SE2.6 kmh SE 2.2 mph3.5 kmh 30.41 in1029.8 mb 0.00 in0.0 mm 0.00 in0.0 mm 0.00 in0.0 mm
10:41 PM 43.5°F6.4°C 41.6°F5.3°C 93% Calm Calm -- 29.96 in1014.6 mb 0.00 in0.0 mm 0.00 in0.0 mm 0.00 in0.0 mm
11:08 PM 43.7°F6.5°C 41.5°F5.3°C 92% 1.6 mph SE2.6 kmh SE 1.6 mph2.6 kmh 30.42 in1030.1 mb 0.00 in0.0 mm 0.00 in0.0 mm 0.00 in0.0 mm
11:11 PM 43.5°F6.4°C 41.9°F5.5°C 94% Calm Calm 0.7 mph1.1 kmh 29.95 in1014.2 mb 0.00 in0.0 mm 0.00 in0.0 mm 0.00 in0.0 mm
11:38 PM 43.7°F6.5°C 41.5°F5.3°C 92% Calm Calm 0.7 mph1.1 kmh 30.41 in1029.8 mb 0.00 in0.0 mm 0.00 in0.0 mm 0.00 in0.0 mm
11:41 PM 43.7°F6.5°C 42.1°F5.6°C 94% 0.7 mph SE1.1 kmh SE 1.6 mph2.6 kmh 29.95 in1014.2 mb 0.00 in0.0 mm 0.00 in0.0 mm 0.00 in0.0 mm